createdAt,value
2022-10-17T00:01:38.044Z,101391.81
2022-10-17T00:04:10.008Z,101388.25
2022-10-17T00:06:42.042Z,101385.56
2022-10-17T00:09:13.930Z,101385.59
2022-10-17T00:11:45.830Z,101382.09
2022-10-17T00:14:17.793Z,101387.41
2022-10-17T00:16:49.724Z,101383.00
2022-10-17T00:19:21.608Z,101383.84
2022-10-17T00:21:53.640Z,101381.19
2022-10-17T00:24:25.550Z,101374.97
2022-10-17T00:26:57.469Z,101371.44
2022-10-17T00:29:29.471Z,101374.97
2022-10-17T00:32:01.512Z,101377.63
2022-10-17T00:34:33.502Z,101368.75
2022-10-17T00:37:05.486Z,101366.97
2022-10-17T00:39:37.712Z,101359.84
2022-10-17T00:42:14.176Z,101361.59
2022-10-17T00:44:47.656Z,101368.66
2022-10-17T00:47:22.602Z,101371.38
2022-10-17T00:49:54.684Z,101370.47
2022-10-17T00:52:31.024Z,101367.81
2022-10-17T00:55:18.301Z,101367.72
2022-10-17T00:57:51.588Z,101363.31
2022-10-17T01:00:25.124Z,101360.59
2022-10-17T01:02:57.013Z,101365.88
2022-10-17T01:05:29.692Z,101356.09
2022-10-17T01:08:02.524Z,101362.31
2022-10-17T01:11:11.801Z,101364.91
2022-10-17T01:13:55.073Z,101367.63
2022-10-17T01:16:49.079Z,101367.56
2022-10-17T01:19:42.981Z,101358.72
2022-10-17T01:22:26.720Z,101365.81
2022-10-17T01:25:23.612Z,101364.91
2022-10-17T01:28:16.538Z,101370.28
2022-10-17T01:31:06.973Z,101361.47
2022-10-17T01:33:41.857Z,101363.25
2022-10-17T01:36:24.857Z,101367.72
2022-10-17T01:39:13.167Z,101357.09
2022-10-17T01:42:07.102Z,101357.06
2022-10-17T01:45:37.703Z,101357.91
2022-10-17T01:48:21.735Z,101351.78
2022-10-17T01:51:17.023Z,101342.81
2022-10-17T01:54:35.991Z,101346.38
2022-10-17T01:57:18.549Z,101346.47
2022-10-17T01:59:54.868Z,101350.03
2022-10-17T02:02:28.099Z,101350.94
2022-10-17T02:05:03.747Z,101343.91
2022-10-17T02:07:35.757Z,101337.72
2022-10-17T02:10:20.999Z,101329.75
2022-10-17T02:13:12.928Z,101337.78
2022-10-17T02:16:38.215Z,101331.56
2022-10-17T02:19:16.026Z,101324.50
2022-10-17T02:22:47.938Z,101325.41
2022-10-17T02:25:43.831Z,101329.78
2022-10-17T02:28:47.334Z,101320.91
2022-10-17T02:31:31.459Z,101321.78
2022-10-17T02:34:11.826Z,101329.88
2022-10-17T02:36:53.843Z,101328.13
2022-10-17T02:39:29.499Z,101329.03
2022-10-17T02:42:07.377Z,101336.09
2022-10-17T02:44:44.954Z,101333.53
2022-10-17T02:47:30.099Z,101331.66
2022-10-17T02:50:02.490Z,101333.50
2022-10-17T02:52:45.136Z,101329.09
2022-10-17T02:55:20.500Z,101335.31
2022-10-17T02:57:59.152Z,101330.00
2022-10-17T03:00:33.086Z,101330.03
2022-10-17T03:03:20.530Z,101325.56
2022-10-17T03:05:53.459Z,101327.34
2022-10-17T03:08:25.868Z,101328.28
2022-10-17T03:10:57.821Z,101328.22
2022-10-17T03:13:30.750Z,101332.66
2022-10-17T03:16:02.744Z,101335.28
2022-10-17T03:18:34.663Z,101313.00
2022-10-17T03:21:06.699Z,101321.94
2022-10-17T03:23:38.584Z,101332.66
2022-10-17T03:26:10.688Z,101331.78
2022-10-17T03:28:42.627Z,101333.53
2022-10-17T03:31:17.404Z,101333.41
2022-10-17T03:33:49.290Z,101337.91
2022-10-17T03:36:21.787Z,101343.22
2022-10-17T03:38:55.004Z,101339.72
2022-10-17T03:41:26.905Z,101335.25
2022-10-17T03:43:58.827Z,101329.94
2022-10-17T03:46:30.788Z,101329.09
2022-10-17T03:49:02.824Z,101331.78
2022-10-17T03:51:35.347Z,101327.31
2022-10-17T03:54:07.235Z,101310.34
2022-10-17T03:56:39.127Z,101326.44
2022-10-17T03:59:15.766Z,101309.47
2022-10-17T04:01:47.795Z,101334.44
2022-10-17T04:04:19.763Z,101317.47
2022-10-17T04:06:51.651Z,101327.34
2022-10-17T04:09:23.555Z,101332.69
2022-10-17T04:11:55.409Z,101344.22
2022-10-17T04:14:27.471Z,101341.56
2022-10-17T04:16:59.532Z,101340.78
2022-10-17T04:19:31.559Z,101345.19
2022-10-17T04:22:04.095Z,101347.91
2022-10-17T04:24:35.966Z,101331.78
2022-10-17T04:27:08.093Z,101355.00
2022-10-17T04:29:40.035Z,101355.94
2022-10-17T04:32:11.960Z,101361.25
2022-10-17T04:34:44.048Z,101365.72
2022-10-17T04:37:16.279Z,101364.88
2022-10-17T04:39:48.154Z,101363.06
2022-10-17T04:42:20.086Z,101371.09
2022-10-17T04:44:52.040Z,101373.69
2022-10-17T04:47:24.016Z,101380.81
2022-10-17T04:49:55.960Z,101367.53
2022-10-17T04:52:28.300Z,101371.94
2022-10-17T04:55:00.418Z,101388.81
2022-10-17T04:57:35.756Z,101395.00
2022-10-17T05:02:46.572Z,101403.00
2022-10-17T05:05:18.530Z,101390.63
2022-10-17T05:07:50.421Z,101403.97
2022-10-17T05:10:22.362Z,101386.97
2022-10-17T05:12:54.538Z,101402.22
2022-10-17T05:15:26.442Z,101389.88
2022-10-17T05:17:58.602Z,101396.97
2022-10-17T05:20:30.720Z,101404.97
2022-10-17T05:23:03.094Z,101396.97
2022-10-17T05:25:35.044Z,101404.09
2022-10-17T05:28:06.952Z,101405.84
2022-10-17T05:30:38.869Z,101409.41
2022-10-17T05:33:10.749Z,101403.25
2022-10-17T05:35:42.718Z,101414.78
2022-10-17T05:38:14.686Z,101417.44
2022-10-17T05:40:46.629Z,101412.16
2022-10-17T05:43:18.639Z,101419.28
2022-10-17T05:45:50.716Z,101420.19
2022-10-17T05:48:24.119Z,101421.13
2022-10-17T05:51:01.953Z,101422.06
2022-10-17T05:53:37.772Z,101430.91
2022-10-17T05:56:12.955Z,101430.06
2022-10-17T05:58:50.284Z,101424.69
2022-10-17T06:01:24.370Z,101439.03
2022-10-17T06:03:56.361Z,101432.63
2022-10-17T06:06:28.315Z,101427.31
2022-10-17T06:09:00.240Z,101430.00
2022-10-17T06:11:32.286Z,101440.72
2022-10-17T06:14:05.101Z,101438.94
2022-10-17T06:16:37.000Z,101443.44
2022-10-17T06:19:08.965Z,101438.97
2022-10-17T06:21:40.975Z,101429.16
2022-10-17T06:24:13.233Z,101436.38
2022-10-17T06:26:45.217Z,101435.50
2022-10-17T06:29:17.719Z,101434.66
2022-10-17T06:31:49.658Z,101440.81
2022-10-17T06:34:21.845Z,101439.06
2022-10-17T06:36:53.777Z,101442.66
2022-10-17T06:39:27.006Z,101446.22
2022-10-17T06:41:58.910Z,101451.53
2022-10-17T06:44:32.113Z,101451.53
2022-10-17T06:47:04.101Z,101453.34
2022-10-17T06:49:35.989Z,101456.91
2022-10-17T06:52:07.964Z,101467.53
2022-10-17T06:54:39.877Z,101468.47
2022-10-17T06:57:11.849Z,101463.19
2022-10-17T06:59:44.148Z,101456.13
2022-10-17T07:02:16.095Z,101457.94
2022-10-17T07:04:48.099Z,101458.88
2022-10-17T07:07:20.044Z,101457.13
2022-10-17T07:09:52.717Z,101450.88
2022-10-17T07:12:24.885Z,101465.19
2022-10-17T07:14:56.770Z,101474.06
2022-10-17T07:17:28.947Z,101477.69
2022-10-17T07:20:01.266Z,101480.38
2022-10-17T07:22:33.389Z,101475.09
2022-10-17T07:25:06.182Z,101486.69
2022-10-17T07:27:38.173Z,101491.13
2022-10-17T07:30:11.032Z,101494.72
2022-10-17T07:32:44.055Z,101492.09
2022-10-17T07:35:16.075Z,101500.91
2022-10-17T07:37:48.063Z,101531.13
2022-10-17T07:40:19.978Z,101529.38
2022-10-17T07:42:52.030Z,101545.38
2022-10-17T07:45:23.986Z,101573.75
2022-10-17T07:47:58.019Z,101590.59
2022-10-17T07:50:29.939Z,101601.25
2022-10-17T07:53:02.091Z,101594.13
2022-10-17T07:55:34.253Z,101604.81
2022-10-17T07:58:06.892Z,101616.41
2022-10-17T08:00:40.369Z,101622.59
2022-10-17T08:03:12.421Z,101610.19
2022-10-17T08:05:44.371Z,101616.44
2022-10-17T08:08:16.282Z,101620.97
2022-10-17T08:10:48.247Z,101626.38
2022-10-17T08:13:21.168Z,101625.53
2022-10-17T08:15:53.103Z,101630.00
2022-10-17T08:18:25.062Z,101629.03
2022-10-17T08:21:01.371Z,101661.16
2022-10-17T08:23:33.290Z,101670.91
2022-10-17T08:26:10.640Z,101679.81
2022-10-17T08:28:43.239Z,101670.06
2022-10-17T08:31:19.057Z,101677.13
2022-10-17T08:33:51.171Z,101675.41
2022-10-17T08:36:23.206Z,101686.06
2022-10-17T08:38:55.130Z,101675.41
2022-10-17T08:42:20.732Z,101687.69
2022-10-17T08:45:29.332Z,101688.53
2022-10-17T08:48:16.154Z,101677.91
2022-10-17T08:50:59.354Z,101691.25
2022-10-17T08:53:51.652Z,101674.34
2022-10-17T08:56:48.198Z,101665.44
2022-10-17T08:59:27.487Z,101673.38
2022-10-17T09:02:20.947Z,101676.09
2022-10-17T09:05:52.226Z,101679.56
2022-10-17T09:08:29.674Z,101701.75
2022-10-17T09:11:39.533Z,101699.88
2022-10-17T09:14:44.559Z,101707.78
2022-10-17T09:17:35.035Z,101727.25
2022-10-17T09:20:19.402Z,101746.72
2022-10-17T09:23:04.144Z,101765.25
2022-10-17T09:25:49.292Z,101800.63
2022-10-17T09:28:27.048Z,101697.78
2022-10-17T09:31:06.867Z,101678.25
2022-10-17T09:33:54.634Z,101668.50
2022-10-17T09:36:37.753Z,101662.31
2022-10-17T09:39:22.469Z,101667.63
2022-10-17T09:41:58.219Z,101690.81
2022-10-17T09:44:36.299Z,101696.13
2022-10-17T09:47:30.215Z,101710.28
2022-10-17T09:50:02.634Z,101720.03
2022-10-17T09:52:42.224Z,101720.09
2022-10-17T09:55:22.351Z,101721.88
2022-10-17T09:58:01.645Z,101712.09
2022-10-17T10:00:49.090Z,101697.94
2022-10-17T10:03:27.303Z,101694.47
2022-10-17T10:06:05.366Z,101696.31
2022-10-17T10:08:56.230Z,101696.28
2022-10-17T10:11:54.651Z,101700.75
2022-10-17T10:14:36.183Z,101711.50
2022-10-17T10:17:41.851Z,101720.19
2022-10-17T10:20:36.812Z,101725.50
2022-10-17T10:23:18.615Z,101732.56
2022-10-17T10:25:58.494Z,101747.69
2022-10-17T10:28:35.783Z,101759.22
2022-10-17T10:31:09.990Z,101753.06
2022-10-17T10:33:46.987Z,101749.56
2022-10-17T10:36:23.154Z,101751.31
2022-10-17T10:39:00.183Z,101758.50
2022-10-17T10:41:48.708Z,101765.69
2022-10-17T10:44:25.460Z,101780.75
2022-10-17T11:04:51.694Z,101802.09
2022-10-17T11:07:50.072Z,101776.13
2022-10-17T11:10:41.860Z,101790.44
2022-10-17T11:13:43.799Z,101767.16
2022-10-17T11:16:31.936Z,101804.00
2022-10-17T11:20:15.474Z,101751.69
2022-10-17T11:22:54.260Z,101747.28
2022-10-17T11:25:40.090Z,101811.88
2022-10-17T11:28:24.262Z,101812.69
2022-10-17T11:31:18.912Z,101772.22
2022-10-17T11:34:09.724Z,101811.72
2022-10-17T11:36:47.169Z,101814.44
2022-10-17T11:39:54.934Z,101864.66
2022-10-17T11:42:51.037Z,101832.31
2022-10-17T11:45:27.717Z,101847.50
2022-10-17T11:48:13.368Z,101859.28
2022-10-17T11:54:16.850Z,101791.06
2022-10-17T11:57:21.051Z,101875.41
2022-10-17T12:00:22.999Z,101881.63
2022-10-17T12:03:21.257Z,101874.50
2022-10-17T12:06:18.278Z,101882.56
2022-10-17T12:09:17.572Z,101852.88
2022-10-17T12:11:54.218Z,101886.13
2022-10-17T12:14:47.127Z,101862.84
2022-10-17T12:17:32.518Z,101882.59
2022-10-17T12:20:26.177Z,101893.22
2022-10-17T12:23:12.928Z,101884.38
2022-10-17T12:26:10.364Z,101886.13
2022-10-17T12:28:48.842Z,101846.66
2022-10-17T12:31:21.887Z,101891.59
2022-10-17T12:34:05.220Z,101882.72
2022-10-17T12:36:42.288Z,101890.75
2022-10-17T12:39:15.508Z,101891.59
2022-10-17T12:41:47.586Z,101894.25
2022-10-17T12:44:22.299Z,101887.03
2022-10-17T12:46:58.539Z,101897.78
2022-10-17T12:49:54.364Z,101881.50
2022-10-17T12:52:38.221Z,101890.50
2022-10-17T12:55:18.165Z,101825.84
2022-10-17T12:58:06.424Z,101892.13
2022-10-17T13:00:43.820Z,101923.56
2022-10-17T13:03:35.226Z,101853.34
2022-10-17T13:06:14.361Z,101916.16
2022-10-17T13:09:31.421Z,101899.94
2022-10-17T13:12:11.960Z,101874.00
2022-10-17T13:14:50.281Z,101902.72
2022-10-17T13:17:30.929Z,101864.09
2022-10-17T13:20:29.018Z,101884.72
2022-10-17T13:23:04.279Z,101920.63
2022-10-17T13:25:38.886Z,101943.06
2022-10-17T13:28:13.886Z,101905.34
2022-10-17T13:30:50.117Z,101956.50
2022-10-17T13:33:39.873Z,101920.50
2022-10-17T13:36:18.996Z,101960.91
2022-10-17T13:38:51.457Z,101886.25
2022-10-17T13:41:35.910Z,101976.94
2022-10-17T13:44:25.955Z,101960.75
2022-10-17T13:46:58.580Z,101969.72
2022-10-17T13:49:43.240Z,101941.81
2022-10-17T13:52:20.535Z,101932.81
2022-10-17T13:54:56.634Z,101934.63
2022-10-17T13:57:41.496Z,101905.78
2022-10-17T14:00:32.050Z,101928.22
2022-10-17T14:03:07.101Z,101962.38
2022-10-17T14:06:13.899Z,101972.03
2022-10-17T14:09:00.910Z,101913.69
2022-10-17T14:11:41.743Z,101974.72
2022-10-17T14:14:22.606Z,101935.25
2022-10-17T14:16:55.256Z,102022.41
2022-10-17T14:19:38.114Z,102008.06
2022-10-17T14:22:50.644Z,102018.50
2022-10-17T14:25:37.606Z,101998.81
2022-10-17T14:28:36.577Z,101984.22
2022-10-17T14:31:39.304Z,102030.06
2022-10-17T14:34:34.544Z,102038.16
2022-10-17T14:37:48.830Z,102012.97
2022-10-17T14:40:30.438Z,101996.94
2022-10-17T14:43:08.157Z,101947.69
2022-10-17T14:45:43.014Z,101993.63
2022-10-17T14:48:20.671Z,101938.03
2022-10-17T14:51:22.515Z,101991.91
2022-10-17T14:54:46.230Z,101972.03
2022-10-17T14:57:33.953Z,102020.56
2022-10-17T15:00:14.250Z,101976.72
2022-10-17T15:03:40.730Z,101957.00
2022-10-17T15:06:37.334Z,101995.59
2022-10-17T15:09:14.184Z,101978.53
2022-10-17T15:11:53.122Z,102042.25
2022-10-17T15:15:00.138Z,102045.31
2022-10-17T15:18:00.121Z,101870.59
2022-10-17T15:21:42.079Z,101932.44
2022-10-17T15:24:45.612Z,101998.81
2022-10-17T15:28:04.218Z,101909.53
2022-10-17T15:30:49.224Z,102084.09
2022-10-17T15:33:42.570Z,101960.75
2022-10-17T15:40:26.840Z,101994.78
2022-10-17T15:43:02.906Z,101998.19
2022-10-17T15:46:14.810Z,101931.47
2022-10-17T15:48:57.458Z,101962.09
2022-10-17T15:51:44.891Z,102037.75
2022-10-17T15:54:28.740Z,101961.09
2022-10-17T15:57:35.344Z,102001.59
2022-10-17T16:00:28.402Z,102042.94
2022-10-17T16:03:04.543Z,101941.25
2022-10-17T16:05:44.724Z,102110.28
2022-10-17T16:11:47.812Z,101956.00
2022-10-17T16:14:20.215Z,101991.06
2022-10-17T16:23:37.491Z,102014.28
2022-10-17T16:30:43.076Z,101944.72
2022-10-17T16:37:31.640Z,102023.03
2022-10-17T16:41:11.347Z,101953.97
2022-10-17T16:43:58.328Z,101971.53
2022-10-17T16:56:23.798Z,102140.84
2022-10-17T16:58:57.086Z,102144.41
2022-10-17T17:01:30.488Z,102145.31
2022-10-17T17:04:04.555Z,102148.84
2022-10-17T17:06:37.477Z,102143.50
2022-10-17T17:09:09.851Z,102151.47
2022-10-17T17:11:41.830Z,102153.19
2022-10-17T17:14:15.344Z,102154.06
2022-10-17T17:16:47.324Z,102162.06
2022-10-17T17:19:20.340Z,102154.88
2022-10-17T17:21:52.326Z,102161.97
2022-10-17T17:24:24.325Z,102165.50
2022-10-17T17:26:57.538Z,102164.44
2022-10-17T17:29:29.508Z,102176.28
2022-10-17T17:32:01.485Z,102178.63
2022-10-17T17:34:37.396Z,102186.63
2022-10-17T17:37:09.340Z,102183.88
2022-10-17T17:39:41.294Z,102182.00
2022-10-17T17:42:13.221Z,102190.81
2022-10-17T17:44:45.121Z,102181.81
2022-10-17T17:47:17.060Z,102196.16
2022-10-17T17:49:48.972Z,102204.97
2022-10-17T17:52:20.919Z,102199.75
2022-10-17T17:54:52.890Z,102200.56
2022-10-17T17:57:24.852Z,102192.56
2022-10-17T17:59:56.786Z,102197.97
2022-10-17T18:02:28.953Z,102202.41
2022-10-17T18:05:01.314Z,102203.28
2022-10-17T18:07:37.565Z,102204.25
2022-10-17T18:10:13.101Z,102216.56
2022-10-17T18:12:45.473Z,102213.31
2022-10-17T18:15:17.642Z,102222.06
2022-10-17T18:17:49.704Z,102227.25
2022-10-17T18:20:21.573Z,102221.03
2022-10-17T18:22:53.498Z,102229.88
2022-10-17T18:25:25.354Z,102226.25
2022-10-17T18:27:57.240Z,102233.19
2022-10-17T18:30:32.317Z,102232.22
2022-10-17T18:33:06.566Z,102225.97
2022-10-17T18:35:38.495Z,102230.41
2022-10-17T18:38:10.560Z,102235.69
2022-10-17T18:40:43.419Z,102234.72
2022-10-17T18:43:16.948Z,102239.16
2022-10-17T18:45:49.021Z,102239.16
2022-10-17T18:48:20.917Z,102243.56
2022-10-17T18:50:52.856Z,102245.28
2022-10-17T18:53:24.832Z,102248.00
2022-10-17T18:55:57.099Z,102242.59
2022-10-17T18:58:29.377Z,102250.53
2022-10-17T19:01:10.729Z,102246.94
2022-10-17T19:03:45.082Z,102259.22
2022-10-17T19:06:21.055Z,102252.13
2022-10-17T19:08:53.337Z,102250.38
2022-10-17T19:11:27.630Z,102253.84
2022-10-17T19:14:03.973Z,102245.97
2022-10-17T19:16:37.392Z,102246.94
2022-10-17T19:19:25.292Z,102253.00
2022-10-17T19:21:58.084Z,102208.97
2022-10-17T19:24:30.330Z,102230.69
2022-10-17T19:27:04.078Z,102251.50
2022-10-17T19:29:36.011Z,102259.41
2022-10-17T19:32:14.224Z,102258.56
2022-10-17T19:34:48.941Z,102250.44
2022-10-17T19:37:20.818Z,102255.75
2022-10-17T19:39:52.717Z,102255.66
2022-10-17T19:42:24.684Z,102258.34
2022-10-17T19:44:56.623Z,102255.78
2022-10-17T19:47:28.824Z,102257.56
2022-10-17T19:50:00.818Z,102262.75
2022-10-17T19:52:32.971Z,102264.41
2022-10-17T19:55:05.667Z,102272.41
2022-10-17T19:57:37.561Z,102281.28
2022-10-17T20:00:10.165Z,102256.94
2022-10-17T20:02:42.089Z,102281.19
2022-10-17T20:05:18.439Z,102279.44
2022-10-17T20:07:50.917Z,102281.13
2022-10-17T20:10:23.088Z,102273.91
2022-10-17T20:12:55.011Z,102257.63
2022-10-17T20:15:27.130Z,102291.81
2022-10-17T20:17:59.553Z,102248.63
2022-10-17T20:20:31.687Z,102289.00
2022-10-17T20:23:04.631Z,102288.91
2022-10-17T20:25:38.252Z,102277.22
2022-10-17T20:28:10.293Z,102289.63
2022-10-17T20:30:46.526Z,102284.41
2022-10-17T20:33:18.491Z,102276.38
2022-10-17T20:35:50.712Z,102278.09
2022-10-17T20:38:22.624Z,102275.44
2022-10-17T20:40:54.573Z,102271.81
2022-10-17T20:43:26.465Z,102279.84
2022-10-17T20:46:04.619Z,102290.59
2022-10-17T20:48:41.959Z,102300.31
2022-10-17T20:51:14.078Z,102300.31
2022-10-17T20:53:46.875Z,102302.06
2022-10-17T20:56:26.722Z,102301.06
2022-10-17T20:59:02.848Z,102304.69
2022-10-17T21:01:36.253Z,102294.72
2022-10-17T21:04:40.508Z,102303.72
2022-10-17T21:07:00.472Z,102293.06
2022-10-17T21:09:32.555Z,102306.47
2022-10-17T21:12:05.431Z,102298.47
2022-10-17T21:14:37.608Z,102301.06
2022-10-17T21:17:09.831Z,102302.88
2022-10-17T21:19:41.729Z,102298.38
2022-10-17T21:22:13.940Z,102299.16
2022-10-17T21:24:45.802Z,102303.63
2022-10-17T21:27:19.492Z,102311.50
2022-10-17T21:29:52.064Z,102311.50
2022-10-17T21:32:33.543Z,102306.91
2022-10-17T21:35:16.106Z,102318.56
2022-10-17T21:37:48.039Z,102318.56
2022-10-17T21:40:20.056Z,102322.06
2022-10-17T21:42:51.892Z,102327.38
2022-10-17T21:45:25.910Z,102322.91
2022-10-17T21:48:13.655Z,102328.28
2022-10-17T21:50:45.641Z,102331.78
2022-10-17T21:53:17.574Z,102331.69
2022-10-17T21:55:49.508Z,102342.22
2022-10-17T21:58:21.774Z,102358.22
2022-10-17T22:00:54.006Z,102352.84
2022-10-17T22:03:25.924Z,102360.88
2022-10-17T22:06:07.016Z,102353.75
2022-10-17T22:08:51.624Z,102348.44
2022-10-17T22:11:28.341Z,102348.44
2022-10-17T22:14:12.420Z,102364.31
2022-10-17T22:16:46.534Z,102363.41
2022-10-17T22:19:25.809Z,102365.03
2022-10-17T22:21:57.667Z,102365.97
2022-10-17T22:24:30.156Z,102366.81
2022-10-17T22:27:02.089Z,102358.84
2022-10-17T22:29:34.508Z,102354.41
2022-10-17T22:32:06.421Z,102363.28
2022-10-17T22:34:38.319Z,102355.25
2022-10-17T22:37:10.199Z,102360.56
2022-10-17T22:39:42.256Z,102360.47
2022-10-17T22:42:14.226Z,102362.28
2022-10-17T22:44:46.578Z,102365.81
2022-10-17T22:47:18.496Z,102368.44
2022-10-17T22:49:50.489Z,102371.94
2022-10-17T22:52:22.390Z,102370.13
2022-10-17T22:54:54.305Z,102370.19
2022-10-17T22:57:26.238Z,102371.09
2022-10-17T22:59:58.102Z,102372.94
2022-10-17T23:02:30.327Z,102377.31
2022-10-17T23:05:03.867Z,102371.09
2022-10-17T23:07:35.943Z,102374.59
2022-10-17T23:10:08.391Z,102372.78
2022-10-17T23:12:40.372Z,102369.19
2022-10-17T23:19:23.382Z,102373.56
2022-10-17T23:21:55.258Z,102370.94
2022-10-17T23:24:27.802Z,102366.53
2022-10-17T23:27:00.331Z,102361.97
2022-10-17T23:29:34.368Z,102369.28
2022-10-17T23:32:06.352Z,102368.44
2022-10-17T23:34:38.226Z,102355.06
2022-10-17T23:37:11.203Z,102364.94
2022-10-17T23:39:43.223Z,102374.69
2022-10-17T23:42:15.112Z,102372.03
2022-10-17T23:44:48.219Z,102365.72
2022-10-17T23:47:20.135Z,102368.53
2022-10-17T23:49:52.137Z,102366.72
2022-10-17T23:52:24.346Z,102380.03
2022-10-17T23:54:56.260Z,102376.41
2022-10-17T23:57:28.475Z,102378.25
